West Nanticoke, Pennsylvania
Current Conditions -  °F | °C
As of 11:15 AM on Friday 24 Oct 2014 (Local Time) from KHZL Reporting Station
Overcast Overcast  
Wind Chill: 57°   Ceiling: 3600
Heat Index: 57°   Visibility: 10mi
Dew Point: 41°   Wind: 16mph
Humidity: 55%   Direction: 320°NW
Pressure: 29.92"   Gusts: 25mph
Location:  41.1827°N, 76.0306°W
Report Text: KHZL 241515Z AUTO 32014G22KT 10SM OVC036 14/05 A2992 RMK AO2
Loading
Personal Weather Stations






























Interactive Weather Map
Tropical Storm Tracking
New forecast layout! Learn more

10-Day Weather Forecast

Advertisements
Track Severe Weather on mobile